createdAt,value
2023-05-10T00:00:45.928Z,6.70
2023-05-10T00:03:14.445Z,5.90
2023-05-10T00:05:42.939Z,5.90
2023-05-10T00:08:11.227Z,5.80
2023-05-10T00:10:39.633Z,5.30
2023-05-10T00:13:08.122Z,5.60
2023-05-10T00:15:37.650Z,5.50
2023-05-10T00:18:06.232Z,5.50
2023-05-10T00:20:34.598Z,4.70
2023-05-10T00:23:02.931Z,5.10
2023-05-10T00:25:31.489Z,5.00
2023-05-10T00:27:59.881Z,5.50
2023-05-10T00:30:28.269Z,6.10
2023-05-10T00:32:56.985Z,6.10
2023-05-10T00:35:25.609Z,5.70
2023-05-10T00:37:54.015Z,5.20
2023-05-10T00:40:22.586Z,5.40
2023-05-10T00:42:54.645Z,5.70
2023-05-10T00:45:23.282Z,5.80
2023-05-10T00:47:56.245Z,5.60
2023-05-10T00:50:24.876Z,5.60
2023-05-10T00:52:53.680Z,5.50
2023-05-10T00:55:22.689Z,5.30
2023-05-10T00:57:51.492Z,5.40
2023-05-10T01:00:20.272Z,5.80
2023-05-10T01:02:49.222Z,6.40
2023-05-10T01:05:17.897Z,5.40
2023-05-10T01:07:46.383Z,5.70
2023-05-10T01:10:15.574Z,5.80
2023-05-10T01:12:46.792Z,5.80
2023-05-10T01:15:17.225Z,6.30
2023-05-10T01:17:48.582Z,6.80
2023-05-10T01:20:17.321Z,6.10
2023-05-10T01:23:13.192Z,6.60
2023-05-10T01:26:16.386Z,6.20
2023-05-10T01:29:15.155Z,6.40
2023-05-10T01:32:16.074Z,6.70
2023-05-10T01:35:16.166Z,7.20
2023-05-10T01:37:53.662Z,6.50
2023-05-10T01:40:34.465Z,6.40
2023-05-10T01:43:05.236Z,7.70
2023-05-10T01:45:41.276Z,7.30
2023-05-10T01:48:15.228Z,7.10
2023-05-10T01:50:46.585Z,6.60
2023-05-10T01:53:20.037Z,8.10
2023-05-10T01:55:52.070Z,9.30
2023-05-10T01:58:26.270Z,9.60
2023-05-10T02:00:55.926Z,9.00
2023-05-10T02:03:27.380Z,9.50
2023-05-10T02:05:57.226Z,8.30
2023-05-10T02:08:26.406Z,9.10
2023-05-10T02:10:59.786Z,7.90
2023-05-10T02:13:32.894Z,7.60
2023-05-10T02:16:04.696Z,7.60
2023-05-10T02:18:35.481Z,7.90
2023-05-10T02:21:04.564Z,8.50
2023-05-10T02:23:33.703Z,7.90
2023-05-10T02:26:06.920Z,8.20
2023-05-10T02:31:07.088Z,8.40
2023-05-10T02:33:36.516Z,8.80
2023-05-10T02:36:06.528Z,8.20
2023-05-10T02:38:37.052Z,8.20
2023-05-10T02:41:06.572Z,8.50
2023-05-10T02:43:36.677Z,7.80
2023-05-10T02:46:05.172Z,8.70
2023-05-10T02:48:33.675Z,7.80
2023-05-10T02:51:08.229Z,9.30
2023-05-10T02:53:39.837Z,8.50
2023-05-10T02:56:16.517Z,8.90
2023-05-10T02:58:44.826Z,8.40
2023-05-10T03:01:13.461Z,8.80
2023-05-10T03:03:41.843Z,9.70
2023-05-10T03:06:10.763Z,10.60
2023-05-10T03:08:39.610Z,10.30
2023-05-10T03:11:25.108Z,9.30
2023-05-10T03:14:04.546Z,10.30
2023-05-10T03:16:48.144Z,10.40
2023-05-10T03:19:56.482Z,11.70
2023-05-10T03:22:32.902Z,12.80
2023-05-10T03:25:06.720Z,12.80
2023-05-10T03:27:37.809Z,12.40
2023-05-10T03:30:10.125Z,11.10
2023-05-10T03:32:38.891Z,10.20
2023-05-10T03:35:09.442Z,11.00
2023-05-10T03:37:37.915Z,10.80
2023-05-10T03:40:07.998Z,9.90
2023-05-10T03:42:37.834Z,9.60
2023-05-10T03:45:07.070Z,11.20
2023-05-10T03:47:35.422Z,9.80
2023-05-10T03:50:04.245Z,10.40
2023-05-10T03:52:33.045Z,12.10
2023-05-10T03:55:01.441Z,14.60
2023-05-10T03:57:29.948Z,13.60
2023-05-10T03:59:58.444Z,12.30
2023-05-10T04:02:27.126Z,12.70
2023-05-10T04:04:55.689Z,13.90
2023-05-10T04:07:24.427Z,14.50
2023-05-10T04:09:53.474Z,10.30
2023-05-10T04:12:23.775Z,9.90
2023-05-10T04:14:52.362Z,10.10
2023-05-10T04:17:20.763Z,8.70
2023-05-10T04:19:49.182Z,9.80
2023-05-10T04:22:17.667Z,10.00
2023-05-10T04:24:46.007Z,8.20
2023-05-10T04:27:14.378Z,7.60
2023-05-10T04:29:42.815Z,7.40
2023-05-10T04:32:11.350Z,7.20
2023-05-10T04:34:39.664Z,7.70
2023-05-10T04:37:08.746Z,8.50
2023-05-10T04:39:37.101Z,7.70
2023-05-10T04:42:06.830Z,7.50
2023-05-10T04:44:35.278Z,7.60
2023-05-10T04:47:04.242Z,7.60
2023-05-10T04:49:32.652Z,7.50
2023-05-10T04:52:00.949Z,7.50
2023-05-10T04:54:29.344Z,6.90
2023-05-10T04:56:57.726Z,7.50
2023-05-10T04:59:26.019Z,7.00
2023-05-10T05:01:54.487Z,6.60
2023-05-10T05:04:24.596Z,7.90
2023-05-10T05:06:53.977Z,7.20
2023-05-10T05:09:22.536Z,6.80
2023-05-10T05:11:50.945Z,6.20
2023-05-10T05:14:19.361Z,5.40
2023-05-10T05:16:48.043Z,6.60
2023-05-10T05:19:16.638Z,5.00
2023-05-10T05:21:45.081Z,4.90
2023-05-10T05:24:13.849Z,5.10
2023-05-10T05:26:42.632Z,5.30
2023-05-10T05:29:10.967Z,5.70
2023-05-10T05:31:39.341Z,5.60
2023-05-10T05:34:07.755Z,4.50
2023-05-10T05:36:39.559Z,6.30
2023-05-10T05:39:08.489Z,4.30
2023-05-10T05:41:36.863Z,4.50
2023-05-10T05:44:05.260Z,5.30
2023-05-10T05:46:34.287Z,5.20
2023-05-10T05:49:02.723Z,4.60
2023-05-10T05:51:32.107Z,3.70
2023-05-10T05:54:00.381Z,3.20
2023-05-10T05:56:28.737Z,2.90
2023-05-10T05:58:57.266Z,3.40
2023-05-10T06:01:25.606Z,3.00
2023-05-10T06:03:54.238Z,2.90
2023-05-10T06:06:22.698Z,3.20
2023-05-10T06:08:51.074Z,3.80
2023-05-10T06:11:19.506Z,2.60
2023-05-10T06:13:48.447Z,2.60
2023-05-10T06:16:16.921Z,2.60
2023-05-10T06:18:45.282Z,2.90
2023-05-10T06:21:13.641Z,2.70
2023-05-10T06:23:42.051Z,3.20
2023-05-10T06:26:10.801Z,3.20
2023-05-10T06:28:40.189Z,3.30
2023-05-10T06:31:08.780Z,2.60
2023-05-10T06:33:37.179Z,3.30
2023-05-10T06:36:05.895Z,2.90
2023-05-10T06:38:34.499Z,3.10
2023-05-10T06:41:02.815Z,3.50
2023-05-10T06:43:31.292Z,3.00
2023-05-10T06:45:59.728Z,3.30
2023-05-10T06:48:28.180Z,3.20
2023-05-10T06:50:56.577Z,3.70
2023-05-10T06:53:24.947Z,3.50
2023-05-10T06:55:53.327Z,4.60
2023-05-10T06:58:21.696Z,3.20
2023-05-10T07:00:50.038Z,3.60
2023-05-10T07:03:18.540Z,3.60
2023-05-10T07:05:46.943Z,3.90
2023-05-10T07:08:15.692Z,3.40
2023-05-10T07:10:44.021Z,3.30
2023-05-10T07:13:12.432Z,3.60
2023-05-10T07:15:40.809Z,3.60
2023-05-10T07:18:09.251Z,3.70
2023-05-10T07:20:37.654Z,3.50
2023-05-10T07:23:06.016Z,3.50
2023-05-10T07:25:34.358Z,3.50
2023-05-10T07:28:02.755Z,3.50
2023-05-10T07:30:31.860Z,3.40
2023-05-10T07:33:00.456Z,3.70
2023-05-10T07:35:29.041Z,3.40
2023-05-10T07:37:57.618Z,3.30
2023-05-10T07:40:25.998Z,3.50
2023-05-10T07:42:54.307Z,3.50
2023-05-10T07:45:23.232Z,3.40
2023-05-10T07:47:51.633Z,2.90
2023-05-10T07:50:20.203Z,3.50
2023-05-10T07:52:49.239Z,3.40
2023-05-10T07:55:19.935Z,3.10
2023-05-10T07:57:48.424Z,3.00
2023-05-10T08:02:43.153Z,2.90
2023-05-10T08:05:11.845Z,3.10
2023-05-10T08:07:40.502Z,2.80
2023-05-10T08:10:09.977Z,3.10
2023-05-10T08:12:39.504Z,3.40
2023-05-10T08:15:09.514Z,2.50
2023-05-10T08:17:37.865Z,2.50
2023-05-10T08:20:06.920Z,2.90
2023-05-10T08:22:35.285Z,3.00
2023-05-10T08:25:03.806Z,2.80
2023-05-10T08:27:32.187Z,2.70
2023-05-10T08:30:00.531Z,2.80
2023-05-10T08:32:28.908Z,2.10
2023-05-10T08:34:57.549Z,2.70
2023-05-10T08:37:26.301Z,2.50
2023-05-10T08:39:54.627Z,2.50
2023-05-10T08:42:27.217Z,1.90
2023-05-10T08:44:56.729Z,3.00
2023-05-10T08:47:26.530Z,2.20
2023-05-10T08:49:56.069Z,2.50
2023-05-10T08:52:27.813Z,2.40
2023-05-10T08:54:56.375Z,2.80
2023-05-10T08:57:25.038Z,2.50
2023-05-10T08:59:53.529Z,2.20
2023-05-10T09:02:24.619Z,2.30
2023-05-10T09:04:53.318Z,2.40
2023-05-10T09:07:22.050Z,2.40
2023-05-10T09:09:50.916Z,2.60
2023-05-10T09:12:19.346Z,2.30
2023-05-10T09:14:47.992Z,2.50
2023-05-10T09:17:16.448Z,2.80
2023-05-10T09:19:46.742Z,2.20
2023-05-10T09:22:15.114Z,2.50
2023-05-10T09:24:46.415Z,2.40
2023-05-10T09:27:14.848Z,2.00
2023-05-10T09:29:44.346Z,1.90
2023-05-10T09:32:13.915Z,2.00
2023-05-10T09:34:43.422Z,2.70
2023-05-10T09:37:11.872Z,2.30
2023-05-10T09:39:40.649Z,1.90
2023-05-10T09:42:10.834Z,1.70
2023-05-10T09:44:39.567Z,1.80
2023-05-10T09:47:07.885Z,2.10
2023-05-10T09:49:36.248Z,2.20
2023-05-10T09:52:07.267Z,1.70
2023-05-10T09:54:36.084Z,1.60
2023-05-10T09:57:04.617Z,1.70
2023-05-10T09:59:36.041Z,1.80
2023-05-10T10:02:04.589Z,1.60
2023-05-10T10:04:33.339Z,2.30
2023-05-10T10:07:03.943Z,1.70
2023-05-10T10:09:33.829Z,2.10
2023-05-10T10:12:03.665Z,2.00
2023-05-10T10:14:32.141Z,1.50
2023-05-10T10:19:37.234Z,2.00
2023-05-10T10:22:07.086Z,2.00
2023-05-10T10:24:38.713Z,1.70
2023-05-10T10:27:46.687Z,1.80
2023-05-10T10:30:34.920Z,1.50
2023-05-10T10:33:42.080Z,1.90
2023-05-10T10:36:10.669Z,1.80
2023-05-10T10:39:00.533Z,2.00
2023-05-10T10:41:45.129Z,2.20
2023-05-10T10:44:33.364Z,1.70
2023-05-10T10:47:31.187Z,2.40
2023-05-10T10:50:03.163Z,1.60
2023-05-10T10:52:34.906Z,2.20
2023-05-10T10:55:20.033Z,1.80
2023-05-10T10:58:01.991Z,0.90
2023-05-10T11:00:34.244Z,1.70
2023-05-10T11:03:10.659Z,1.70
2023-05-10T11:05:47.438Z,2.60
2023-05-10T11:08:35.730Z,1.60
2023-05-10T11:11:08.358Z,1.30
2023-05-10T11:13:47.772Z,1.80
2023-05-10T11:16:21.952Z,2.50
2023-05-10T11:19:04.765Z,2.00
2023-05-10T11:21:34.770Z,1.90
2023-05-10T11:24:07.306Z,1.90
2023-05-10T11:26:36.789Z,1.80
2023-05-10T11:29:06.291Z,2.40
2023-05-10T11:31:34.898Z,2.00
2023-05-10T11:34:03.435Z,1.80
2023-05-10T11:36:37.220Z,1.90
2023-05-10T11:39:06.484Z,1.50
2023-05-10T11:41:34.855Z,1.70
2023-05-10T11:44:03.699Z,1.80
2023-05-10T11:46:32.245Z,1.90
2023-05-10T11:49:03.184Z,1.70
2023-05-10T11:51:37.870Z,1.60
2023-05-10T11:54:09.497Z,2.10
2023-05-10T11:56:41.994Z,1.70
2023-05-10T11:59:10.407Z,1.90
2023-05-10T12:01:39.016Z,1.80
2023-05-10T12:04:07.950Z,1.60
2023-05-10T12:06:41.883Z,1.50
2023-05-10T12:09:10.440Z,1.60
2023-05-10T12:11:44.021Z,1.80
2023-05-10T12:14:13.177Z,1.70
2023-05-10T12:16:41.704Z,1.70
2023-05-10T12:19:11.169Z,2.00
2023-05-10T12:21:40.207Z,1.80
2023-05-10T12:24:09.030Z,1.90
2023-05-10T12:29:20.540Z,1.80
2023-05-10T12:31:56.275Z,1.70
2023-05-10T12:34:36.505Z,2.20
2023-05-10T12:37:05.573Z,1.40
2023-05-10T12:39:42.387Z,1.90
2023-05-10T12:42:11.706Z,1.70
2023-05-10T12:44:41.086Z,1.60
2023-05-10T12:47:09.626Z,1.60
2023-05-10T12:49:38.055Z,1.70
2023-05-10T12:52:06.512Z,1.60
2023-05-10T12:54:34.868Z,1.40
2023-05-10T12:57:03.292Z,1.60
2023-05-10T12:59:31.630Z,1.90
2023-05-10T13:02:00.059Z,1.40
2023-05-10T13:04:28.564Z,1.40
2023-05-10T13:07:00.074Z,1.40
2023-05-10T13:09:32.214Z,1.70
2023-05-10T13:12:00.694Z,1.60
2023-05-10T13:14:29.212Z,1.70
2023-05-10T13:16:57.790Z,1.80
2023-05-10T13:19:27.601Z,1.90
2023-05-10T13:21:56.129Z,1.90
2023-05-10T13:24:24.574Z,2.00
2023-05-10T13:26:52.980Z,1.90
2023-05-10T13:29:22.168Z,1.40
2023-05-10T13:31:50.849Z,1.80
2023-05-10T13:34:21.739Z,1.80
2023-05-10T13:36:50.188Z,2.00
2023-05-10T13:39:18.539Z,1.80
2023-05-10T13:41:48.291Z,1.50
2023-05-10T13:44:17.138Z,1.50
2023-05-10T13:46:45.646Z,1.60
2023-05-10T13:49:14.291Z,1.20
2023-05-10T13:51:46.319Z,2.80
2023-05-10T13:54:18.658Z,2.50
2023-05-10T13:56:48.582Z,1.40
2023-05-10T13:59:17.283Z,1.30
2023-05-10T14:01:45.804Z,1.80
2023-05-10T14:04:14.204Z,2.00
2023-05-10T14:06:42.594Z,1.50
2023-05-10T14:09:10.976Z,1.30
2023-05-10T14:11:42.913Z,1.50
2023-05-10T14:14:11.361Z,1.70
2023-05-10T14:16:43.177Z,1.70
2023-05-10T14:19:12.525Z,1.60
2023-05-10T14:21:40.869Z,2.10
2023-05-10T14:24:09.237Z,1.10
2023-05-10T14:26:37.642Z,1.30
2023-05-10T14:29:06.053Z,1.60
2023-05-10T14:31:34.399Z,1.40
2023-05-10T14:34:04.200Z,1.30
2023-05-10T14:36:32.994Z,1.70
2023-05-10T14:39:01.371Z,1.40
2023-05-10T14:41:31.389Z,1.60
2023-05-10T14:43:59.750Z,2.10
2023-05-10T14:46:28.843Z,2.30
2023-05-10T14:48:57.401Z,1.80
2023-05-10T14:51:26.200Z,1.40
2023-05-10T14:53:54.493Z,1.40
2023-05-10T14:56:23.265Z,1.90
2023-05-10T14:58:51.561Z,1.50
2023-05-10T15:01:20.726Z,1.60
2023-05-10T15:03:49.696Z,1.70
2023-05-10T15:06:18.628Z,1.60
2023-05-10T15:08:47.023Z,1.30
2023-05-10T15:11:15.613Z,1.80
2023-05-10T15:13:44.005Z,1.70
2023-05-10T15:16:12.377Z,1.50
2023-05-10T15:18:40.733Z,1.80
2023-05-10T15:21:09.084Z,1.50
2023-05-10T15:23:39.578Z,1.60
2023-05-10T15:26:08.011Z,1.40
2023-05-10T15:28:36.424Z,2.50
2023-05-10T15:31:04.977Z,1.30
2023-05-10T15:33:33.785Z,1.30
2023-05-10T15:36:02.238Z,1.40
2023-05-10T15:38:30.777Z,1.60
2023-05-10T15:40:59.427Z,1.20
2023-05-10T15:43:28.102Z,1.40
2023-05-10T15:45:56.595Z,1.60
2023-05-10T15:48:27.180Z,1.30
2023-05-10T15:50:57.065Z,1.80
2023-05-10T15:53:25.931Z,1.50
2023-05-10T15:55:54.671Z,1.50
2023-05-10T15:58:23.132Z,1.20
2023-05-10T16:00:51.568Z,1.40
2023-05-10T16:03:19.906Z,1.40
2023-05-10T16:05:48.370Z,1.60
2023-05-10T16:08:16.774Z,1.80
2023-05-10T16:10:45.245Z,1.30
2023-05-10T16:13:15.476Z,1.70
2023-05-10T16:15:43.935Z,1.90
2023-05-10T16:18:12.737Z,1.70
2023-05-10T16:20:41.216Z,2.10
2023-05-10T16:23:10.022Z,1.90
2023-05-10T16:25:38.599Z,2.00
2023-05-10T16:28:07.301Z,1.40
2023-05-10T16:30:36.108Z,1.40
2023-05-10T16:33:04.992Z,1.70
2023-05-10T16:35:33.316Z,2.00
2023-05-10T16:38:01.717Z,2.60
2023-05-10T16:40:30.230Z,1.90
2023-05-10T16:42:59.045Z,1.50
2023-05-10T16:45:27.545Z,1.90
2023-05-10T16:47:55.950Z,1.70
2023-05-10T16:50:24.532Z,1.60
2023-05-10T16:52:53.030Z,2.40
2023-05-10T16:55:22.928Z,1.70
2023-05-10T16:57:53.284Z,1.70
2023-05-10T17:00:21.776Z,1.40
2023-05-10T17:02:50.278Z,1.70
2023-05-10T17:05:19.260Z,2.00
2023-05-10T17:07:47.932Z,1.40
2023-05-10T17:10:16.820Z,1.50
2023-05-10T17:12:45.996Z,1.70
2023-05-10T17:15:16.520Z,1.50
2023-05-10T17:17:45.245Z,1.80
2023-05-10T17:20:13.640Z,2.10
2023-05-10T17:22:42.079Z,1.70
2023-05-10T17:25:10.780Z,1.60
2023-05-10T17:27:39.537Z,1.90
2023-05-10T17:30:08.843Z,1.80
2023-05-10T17:32:37.211Z,2.00
2023-05-10T17:35:06.998Z,1.60
2023-05-10T17:37:35.440Z,1.60
2023-05-10T17:40:06.026Z,1.70
2023-05-10T17:42:34.355Z,2.60
2023-05-10T17:45:02.801Z,2.00
2023-05-10T17:47:31.390Z,2.00
2023-05-10T17:49:59.879Z,2.40
2023-05-10T17:52:32.112Z,2.10
2023-05-10T17:55:02.663Z,2.40
2023-05-10T17:57:31.134Z,2.10
2023-05-10T17:59:59.526Z,2.10
2023-05-10T18:02:28.243Z,2.80
2023-05-10T18:04:59.808Z,2.00
2023-05-10T18:07:30.271Z,2.00
2023-05-10T18:09:59.001Z,2.30
2023-05-10T18:12:27.442Z,3.40
2023-05-10T18:14:56.205Z,2.50
2023-05-10T18:17:24.981Z,2.70
2023-05-10T18:19:53.510Z,2.80
2023-05-10T18:22:21.960Z,2.60
2023-05-10T18:24:50.463Z,2.90
2023-05-10T18:27:19.603Z,3.60
2023-05-10T18:29:48.059Z,2.90
2023-05-10T18:32:16.837Z,2.60
2023-05-10T18:34:45.184Z,2.70
2023-05-10T18:37:13.929Z,2.50
2023-05-10T18:39:42.794Z,2.90
2023-05-10T18:42:11.357Z,2.60
2023-05-10T18:44:39.819Z,2.20
2023-05-10T18:47:08.577Z,2.00
2023-05-10T18:49:36.999Z,2.00
2023-05-10T18:52:05.465Z,2.40
2023-05-10T18:54:33.896Z,2.60
2023-05-10T18:57:02.360Z,2.40
2023-05-10T18:59:30.837Z,2.40
2023-05-10T19:01:59.264Z,2.80
2023-05-10T19:04:27.753Z,2.70
2023-05-10T19:06:56.239Z,2.60
2023-05-10T19:09:27.283Z,2.90
2023-05-10T19:11:55.728Z,2.80
2023-05-10T19:14:25.582Z,2.40
2023-05-10T19:16:54.709Z,2.40
2023-05-10T19:19:24.966Z,2.50
2023-05-10T19:21:54.503Z,3.30
2023-05-10T19:24:25.721Z,3.50
2023-05-10T19:26:56.067Z,4.20
2023-05-10T19:29:26.344Z,3.80
2023-05-10T19:31:55.868Z,4.90
2023-05-10T19:34:24.489Z,4.90
2023-05-10T19:36:56.016Z,4.80
2023-05-10T19:39:24.999Z,5.20
2023-05-10T19:41:53.637Z,5.10
2023-05-10T19:44:23.974Z,3.00
2023-05-10T19:46:53.657Z,2.70
2023-05-10T19:49:22.026Z,3.00
2023-05-10T19:51:50.498Z,3.00
2023-05-10T19:54:19.060Z,3.60
2023-05-10T19:56:47.513Z,3.40
2023-05-10T19:59:16.068Z,3.50
2023-05-10T20:01:44.544Z,3.40
2023-05-10T20:04:13.377Z,3.20
2023-05-10T20:06:41.850Z,3.30
2023-05-10T20:09:10.565Z,3.00
2023-05-10T20:11:38.984Z,3.30
2023-05-10T20:14:07.403Z,3.20
2023-05-10T20:16:35.747Z,3.00
2023-05-10T20:19:04.319Z,3.00
2023-05-10T20:21:33.814Z,3.30
2023-05-10T20:24:02.164Z,4.50
2023-05-10T20:26:30.686Z,3.50
2023-05-10T20:28:59.101Z,3.70
2023-05-10T20:31:27.508Z,3.90
2023-05-10T20:33:55.870Z,3.00
2023-05-10T20:36:24.251Z,3.20
2023-05-10T20:38:52.621Z,3.60
2023-05-10T20:41:21.005Z,3.00
2023-05-10T20:43:49.304Z,4.00
2023-05-10T20:46:17.976Z,3.20
2023-05-10T20:48:46.346Z,3.70
2023-05-10T20:51:14.783Z,3.40
2023-05-10T20:53:43.163Z,3.60
2023-05-10T20:56:11.549Z,3.30
2023-05-10T20:58:39.900Z,3.50
2023-05-10T21:01:08.420Z,4.80
2023-05-10T21:03:36.911Z,4.30
2023-05-10T21:06:05.506Z,4.80
2023-05-10T21:08:33.934Z,4.10
2023-05-10T21:11:06.569Z,4.50
2023-05-10T21:13:34.929Z,4.00
2023-05-10T21:16:03.681Z,4.30
2023-05-10T21:18:32.203Z,5.60
2023-05-10T21:21:00.686Z,4.20
2023-05-10T21:23:29.058Z,4.30
2023-05-10T21:25:57.429Z,4.60
2023-05-10T21:28:25.970Z,5.20
2023-05-10T21:30:54.328Z,5.30
2023-05-10T21:33:22.907Z,4.30
2023-05-10T21:35:51.310Z,5.80
2023-05-10T21:38:19.694Z,5.40
2023-05-10T21:40:48.071Z,4.80
2023-05-10T21:43:16.510Z,5.10
2023-05-10T21:45:44.893Z,4.70
2023-05-10T21:48:13.847Z,5.70
2023-05-10T21:50:43.927Z,4.60
2023-05-10T21:53:12.331Z,4.80
2023-05-10T21:55:40.659Z,4.20
2023-05-10T21:58:09.116Z,5.30
2023-05-10T22:00:37.507Z,4.30
2023-05-10T22:03:05.982Z,5.00
2023-05-10T22:05:34.631Z,4.90
2023-05-10T22:08:03.102Z,4.50
2023-05-10T22:10:31.579Z,5.30
2023-05-10T22:13:00.407Z,4.30
2023-05-10T22:15:28.748Z,4.50
2023-05-10T22:17:57.226Z,4.60
2023-05-10T22:20:25.662Z,4.50
2023-05-10T22:22:55.588Z,4.50
2023-05-10T22:25:23.882Z,5.10
2023-05-10T22:27:52.318Z,3.80
2023-05-10T22:30:20.805Z,4.60
2023-05-10T22:32:49.350Z,4.70
2023-05-10T22:35:17.721Z,4.40
2023-05-10T22:37:46.595Z,4.20
2023-05-10T22:40:15.278Z,5.00
2023-05-10T22:42:43.845Z,4.60
2023-05-10T22:45:12.437Z,4.90
2023-05-10T22:47:40.886Z,4.20
2023-05-10T22:50:09.854Z,4.90
2023-05-10T22:52:39.704Z,4.70
2023-05-10T22:55:08.887Z,5.10
2023-05-10T22:57:37.672Z,5.80
2023-05-10T23:00:07.707Z,5.20
2023-05-10T23:02:36.155Z,4.80
2023-05-10T23:05:05.905Z,4.70
2023-05-10T23:07:34.482Z,4.60
2023-05-10T23:10:02.893Z,4.50
2023-05-10T23:12:31.584Z,4.60
2023-05-10T23:15:00.173Z,4.40
2023-05-10T23:17:28.573Z,4.80
2023-05-10T23:19:57.177Z,4.30
2023-05-10T23:22:25.881Z,4.80
2023-05-10T23:24:54.257Z,4.20
2023-05-10T23:27:22.718Z,4.30
2023-05-10T23:29:55.814Z,4.90
2023-05-10T23:34:53.350Z,5.00
2023-05-10T23:37:21.888Z,4.50
2023-05-10T23:39:50.333Z,4.90
2023-05-10T23:42:18.644Z,4.90
2023-05-10T23:44:47.637Z,5.80
2023-05-10T23:47:16.140Z,6.70
2023-05-10T23:49:44.657Z,5.40
2023-05-10T23:52:13.129Z,4.80
2023-05-10T23:54:43.009Z,6.10
2023-05-10T23:57:12.447Z,6.80
2023-05-10T23:59:41.010Z,5.90
